createdAt,value
2023-05-16T00:01:13.279Z,9.609944
2023-05-16T00:06:14.777Z,7.917188
2023-05-16T00:11:16.104Z,7.787574
2023-05-16T00:16:17.438Z,7.892764
2023-05-16T00:21:19.741Z,8.338916
2023-05-16T00:26:22.305Z,8.435572
2023-05-16T00:31:23.882Z,8.044728
2023-05-16T00:36:25.561Z,8.898658
2023-05-16T00:41:27.169Z,8.404674
2023-05-16T00:46:28.761Z,8.55147
2023-05-16T00:51:30.339Z,7.80037
2023-05-16T00:56:31.985Z,7.901422
2023-05-16T01:01:33.973Z,7.325208
2023-05-16T01:06:35.596Z,7.453196
2023-05-16T01:11:37.606Z,6.87272
2023-05-16T01:16:39.477Z,7.322562
2023-05-16T01:21:41.162Z,7.208266
2023-05-16T01:26:42.730Z,7.65222
2023-05-16T01:31:44.988Z,7.153988
2023-05-16T01:36:46.604Z,7.500404
2023-05-16T01:41:48.293Z,7.143986
2023-05-16T01:46:50.198Z,7.141192
2023-05-16T01:51:51.911Z,7.044264
2023-05-16T01:56:53.665Z,7.378046
2023-05-16T02:01:55.474Z,7.008384
2023-05-16T02:06:57.038Z,7.57266
2023-05-16T02:11:58.806Z,8.257444
2023-05-16T02:17:00.844Z,7.999718
2023-05-16T02:22:02.414Z,8.096522
2023-05-16T02:27:04.137Z,7.326128
2023-05-16T02:32:07.396Z,7.689478
2023-05-16T02:37:10.228Z,7.474116
2023-05-16T02:42:13.177Z,7.943662
2023-05-16T02:47:14.839Z,6.893206
2023-05-16T02:52:16.114Z,7.298286
2023-05-16T02:57:17.479Z,7.530296
2023-05-16T03:02:19.061Z,7.947638
2023-05-16T03:07:20.340Z,7.405836
2023-05-16T03:12:21.759Z,7.979852
2023-05-16T03:17:23.216Z,7.57164
2023-05-16T03:22:24.515Z,8.176392
2023-05-16T03:27:25.738Z,7.535464
2023-05-16T03:32:27.649Z,7.02251
2023-05-16T03:37:28.924Z,7.37571
2023-05-16T03:42:30.490Z,7.513524
2023-05-16T03:47:32.258Z,8.230646
2023-05-16T03:52:34.429Z,8.314044
2023-05-16T03:57:35.972Z,8.084894
2023-05-16T04:02:37.744Z,8.100174
2023-05-16T04:07:39.459Z,8.174032
2023-05-16T04:12:41.002Z,7.502044
2023-05-16T04:17:42.862Z,7.29287
2023-05-16T04:22:44.563Z,7.438498
2023-05-16T04:27:46.311Z,7.928344
2023-05-16T04:32:48.533Z,8.214918
2023-05-16T04:37:49.927Z,8.425708
2023-05-16T04:42:51.644Z,8.20063
2023-05-16T04:47:53.560Z,8.730518
2023-05-16T04:52:56.478Z,8.680378
2023-05-16T04:57:57.955Z,8.062382
2023-05-16T05:02:59.311Z,8.40588
2023-05-16T05:08:00.676Z,8.948216
2023-05-16T05:13:02.124Z,8.144178
2023-05-16T05:18:04.109Z,9.054884
2023-05-16T05:23:05.978Z,8.593438
2023-05-16T05:28:07.901Z,9.089472
2023-05-16T05:33:09.792Z,8.948254
2023-05-16T05:38:11.514Z,8.521506
2023-05-16T05:43:12.782Z,9.538894
2023-05-16T05:48:14.190Z,9.909314
2023-05-16T05:53:15.561Z,10.343852
2023-05-16T05:58:16.860Z,9.584676
2023-05-16T06:03:19.022Z,10.033774
2023-05-16T06:08:20.491Z,9.720154
2023-05-16T06:13:21.815Z,9.828562
2023-05-16T06:18:23.264Z,8.639778
2023-05-16T06:23:24.542Z,8.523108
2023-05-16T06:28:25.795Z,9.76545
2023-05-16T06:33:28.230Z,9.269254
2023-05-16T06:38:29.582Z,9.073744
2023-05-16T06:43:30.916Z,9.699978
2023-05-16T06:48:32.240Z,9.098902
2023-05-16T06:53:33.776Z,10.432718
2023-05-16T06:58:35.105Z,10.222934
2023-05-16T07:03:36.782Z,11.508836
2023-05-16T07:08:38.507Z,10.629272
2023-05-16T07:13:40.091Z,12.177434
2023-05-16T07:18:41.711Z,12.935536
2023-05-16T07:23:44.129Z,12.601616
2023-05-16T07:28:45.689Z,12.938968
2023-05-16T07:33:48.231Z,13.962858
2023-05-16T07:38:49.611Z,13.200956
2023-05-16T07:43:51.310Z,13.169176
2023-05-16T07:48:53.056Z,13.54801
2023-05-16T07:53:54.781Z,14.022008
2023-05-16T07:58:56.755Z,13.368824
2023-05-16T08:03:58.555Z,14.03745
2023-05-16T08:09:00.392Z,13.794718
2023-05-16T08:14:01.941Z,14.7511
2023-05-16T08:19:03.808Z,13.578092
2023-05-16T08:24:05.139Z,14.348938
2023-05-16T08:29:06.454Z,15.174604
2023-05-16T08:34:08.533Z,15.350696
2023-05-16T08:39:09.960Z,15.291384
2023-05-16T08:44:11.258Z,14.957112
2023-05-16T08:49:14.264Z,14.970084
2023-05-16T08:54:15.488Z,15.244324
2023-05-16T08:59:16.895Z,15.525296
2023-05-16T09:04:18.372Z,15.644368
2023-05-16T09:09:19.982Z,15.316528
2023-05-16T09:14:21.256Z,16.099572
2023-05-16T09:19:22.877Z,17.0348
2023-05-16T09:24:24.166Z,15.949426
2023-05-16T09:29:25.537Z,16.589638
2023-05-16T09:34:27.121Z,16.103278
2023-05-16T09:39:28.384Z,16.982096
2023-05-16T09:44:29.679Z,16.793194
2023-05-16T09:49:31.059Z,15.69079
2023-05-16T09:54:32.295Z,15.4508
2023-05-16T09:59:33.577Z,16.432964
2023-05-16T10:04:34.989Z,17.745018
2023-05-16T10:09:36.258Z,17.6165
2023-05-16T10:14:37.569Z,15.902028
2023-05-16T10:19:38.967Z,14.291214
2023-05-16T10:24:40.862Z,14.702196
2023-05-16T10:29:53.328Z,14.329712
2023-05-16T10:34:56.527Z,14.663264
2023-05-16T10:39:57.801Z,14.92057
2023-05-16T10:45:06.016Z,14.53077
2023-05-16T10:50:07.909Z,15.426252
2023-05-16T10:55:09.496Z,15.312566
2023-05-16T11:00:10.935Z,15.097896
2023-05-16T11:05:13.093Z,15.019872
2023-05-16T11:10:14.448Z,14.565726
2023-05-16T11:15:15.829Z,14.435716
2023-05-16T11:20:17.291Z,14.000378
2023-05-16T11:25:18.678Z,14.715792
2023-05-16T11:30:19.986Z,15.305592
2023-05-16T11:35:21.773Z,15.924622
2023-05-16T11:40:23.359Z,15.62407
2023-05-16T11:45:24.909Z,15.560076
2023-05-16T11:50:26.788Z,15.055438
2023-05-16T11:55:41.375Z,15.88702
2023-05-16T12:00:44.583Z,16.466236
2023-05-16T12:05:46.507Z,16.238852
2023-05-16T12:10:48.103Z,17.385574
2023-05-16T12:15:49.457Z,16.840064
2023-05-16T12:20:51.148Z,17.342938
2023-05-16T12:25:52.917Z,16.757792
2023-05-16T12:30:54.506Z,16.902118
2023-05-16T12:35:56.183Z,16.531818
2023-05-16T12:40:58.374Z,17.616582
2023-05-16T12:46:00.124Z,17.19906
2023-05-16T12:51:01.893Z,17.055616
2023-05-16T12:56:03.649Z,17.403404
2023-05-16T13:01:05.512Z,17.352206
2023-05-16T13:06:07.185Z,16.496252
2023-05-16T13:11:08.919Z,17.174078
2023-05-16T13:16:10.658Z,16.492806
2023-05-16T13:21:12.352Z,16.706336
2023-05-16T13:26:14.101Z,17.29881
2023-05-16T13:31:15.512Z,15.900264
2023-05-16T13:36:16.956Z,16.717368
2023-05-16T13:41:18.417Z,16.407982
2023-05-16T13:46:19.905Z,16.824432
2023-05-16T13:51:21.490Z,16.827268
2023-05-16T13:56:22.942Z,16.6231
2023-05-16T14:01:24.375Z,16.642952
2023-05-16T14:06:25.916Z,16.110958
2023-05-16T14:11:29.269Z,16.278406
2023-05-16T14:16:31.103Z,15.930088
2023-05-16T14:21:32.490Z,16.852778
2023-05-16T14:26:33.814Z,16.620372
2023-05-16T14:31:35.237Z,16.856048
2023-05-16T14:36:37.427Z,16.248308
2023-05-16T14:41:39.124Z,16.572254
2023-05-16T14:46:41.118Z,15.95507
2023-05-16T14:51:42.874Z,15.742612
2023-05-16T14:56:44.259Z,15.622304
2023-05-16T15:01:45.725Z,15.01527
2023-05-16T15:06:47.102Z,15.27875
2023-05-16T15:11:48.390Z,15.428368
2023-05-16T15:16:49.701Z,14.92833
2023-05-16T15:21:51.074Z,14.869628
2023-05-16T15:26:52.470Z,14.760448
2023-05-16T15:31:53.933Z,14.14671
2023-05-16T15:36:55.312Z,13.6045
2023-05-16T15:42:10.169Z,13.244988
2023-05-16T15:47:12.267Z,12.996068
2023-05-16T15:52:13.611Z,13.078436
2023-05-16T15:57:14.930Z,13.271286
2023-05-16T16:02:16.197Z,12.734638
2023-05-16T16:07:17.545Z,12.81805
2023-05-16T16:12:21.482Z,12.758018
2023-05-16T16:17:22.866Z,13.069602
2023-05-16T16:22:24.446Z,12.455716
2023-05-16T16:27:26.302Z,12.172642
2023-05-16T16:32:27.928Z,12.159412
2023-05-16T16:37:29.563Z,11.850922
2023-05-16T16:42:31.601Z,12.245294
2023-05-16T16:47:33.214Z,11.520978
2023-05-16T16:52:35.020Z,11.91976
2023-05-16T16:57:36.945Z,11.06298
2023-05-16T17:02:38.712Z,11.520192
2023-05-16T17:07:40.184Z,11.58348
2023-05-16T17:12:41.427Z,11.604662
2023-05-16T17:17:43.108Z,11.412518
2023-05-16T17:22:44.769Z,11.065802
2023-05-16T17:27:46.060Z,11.276592
2023-05-16T17:32:49.458Z,10.685042
2023-05-16T17:37:51.247Z,10.779324
2023-05-16T17:42:52.985Z,10.36183
2023-05-16T17:47:54.652Z,11.392042
2023-05-16T17:52:56.511Z,10.732154
2023-05-16T17:57:58.178Z,10.730662
2023-05-16T18:03:00.048Z,10.725642
2023-05-16T18:08:01.668Z,10.26976
2023-05-16T18:13:03.228Z,10.432446
2023-05-16T18:18:04.731Z,9.893762
2023-05-16T18:23:06.032Z,10.553202
2023-05-16T18:28:07.333Z,10.291662
2023-05-16T18:33:09.185Z,10.672084
2023-05-16T18:38:17.429Z,9.665714
2023-05-16T18:43:30.162Z,9.84296
2023-05-16T18:48:32.463Z,10.21399
2023-05-16T18:53:35.689Z,9.721918
2023-05-16T18:58:37.069Z,9.843732
2023-05-16T19:03:38.448Z,10.210462
2023-05-16T19:08:48.113Z,10.07702
2023-05-16T19:13:50.100Z,8.78645
2023-05-16T19:18:52.889Z,9.503028
2023-05-16T19:29:04.838Z,10.224698
2023-05-16T19:34:06.286Z,9.344156
2023-05-16T19:39:07.586Z,9.758828
2023-05-16T19:44:09.631Z,9.154386
2023-05-16T19:49:11.061Z,9.270012
2023-05-16T19:54:12.427Z,9.423864
2023-05-16T19:59:13.685Z,9.249278
2023-05-16T20:04:15.316Z,9.673218
2023-05-16T20:09:18.892Z,9.183196
2023-05-16T20:14:20.507Z,9.128794
2023-05-16T20:19:21.903Z,9.32706
2023-05-16T20:24:23.586Z,8.762784
2023-05-16T20:29:25.213Z,9.673056
2023-05-16T20:34:26.915Z,8.336756
2023-05-16T20:39:28.599Z,9.345148
2023-05-16T20:44:30.448Z,9.436946
2023-05-16T20:49:32.084Z,8.554316
2023-05-16T20:54:33.413Z,8.798488
2023-05-16T20:59:35.163Z,9.01108
2023-05-16T21:04:36.445Z,8.95018
2023-05-16T21:09:37.801Z,9.104194
2023-05-16T21:14:39.224Z,8.975338
2023-05-16T21:19:40.641Z,9.05168
2023-05-16T21:24:41.946Z,8.830144
2023-05-16T21:29:43.249Z,8.852208
2023-05-16T21:34:44.528Z,9.079918
2023-05-16T21:39:45.844Z,8.119468
2023-05-16T21:44:47.804Z,9.213918
2023-05-16T21:49:49.251Z,8.479738
2023-05-16T21:54:50.549Z,9.18568
2023-05-16T21:59:51.801Z,8.414428
2023-05-16T22:04:53.487Z,8.746732
2023-05-16T22:09:55.113Z,8.451052
2023-05-16T22:14:57.018Z,8.967062
2023-05-16T22:19:58.978Z,8.37543
2023-05-16T22:25:00.895Z,8.344384
2023-05-16T22:30:02.793Z,8.471476
2023-05-16T22:35:04.350Z,8.325848
2023-05-16T22:40:06.127Z,7.36997
2023-05-16T22:45:08.198Z,8.274202
2023-05-16T22:50:09.910Z,7.7651
2023-05-16T22:55:11.465Z,7.524866
2023-05-16T23:00:13.215Z,8.35585
2023-05-16T23:05:14.770Z,8.30377
2023-05-16T23:10:16.449Z,7.606948
2023-05-16T23:15:17.759Z,7.822744
2023-05-16T23:20:19.203Z,7.981182
2023-05-16T23:25:20.510Z,7.424572
2023-05-16T23:30:21.821Z,8.15859
2023-05-16T23:35:23.120Z,8.010626
2023-05-16T23:40:24.698Z,7.873942
2023-05-16T23:45:26.916Z,7.985754
2023-05-16T23:50:28.717Z,7.731556
2023-05-16T23:55:30.357Z,7.363634
